Texas City — WDD4983 — position and weather

sailwx.info

Track history (hours):
 
Tides and Currents Weather Stations Pressure Air Temp Water Temp Dewpoint Dewpoint Depression Visibility Wind Speed Wind Dir Waves Ship Positions

Texas City

Owner: Marathon Petroleum Company LP, Findlay, OH. More information available from US FCC via Universal Licensing System and Coast Guard Vessel Documentation Center.

Last reported at 2014-Dec-18 12:11 UTC. Time now 2014-Dec-19 02:19 UTC.
Position N 29°56' W 090°00'.

Length 28 m; draft 3 m.

Type: Tug. MMSI: 367135470.

Date/timePositionNaut miles runAvg speedWind from/ knotsBaromVisibWave heightAir tempDewpointWater temp
2014-Dec-18 12:11N 29°56' W 090°00'0 0.0
2014-Dec-18 06:05N 29°56' W 090°00'0 0.0
2014-Dec-18 05:33N 29°56' W 090°00'0 0.0
2014-Dec-18 02:33N 29°56' W 090°00'0 0.0
2014-Dec-18 00:28N 29°56' W 090°00'0 0.0
2014-Dec-17 23:24N 29°56' W 090°00'0 0.0
2014-Dec-17 22:31N 29°56' W 090°00'0 0.0
2014-Dec-17 21:33N 29°56' W 090°00'0 0.0
2014-Dec-17 20:33N 29°56' W 090°00'0 0.0
2014-Dec-17 19:27N 29°56' W 090°00'0 0.0
2014-Dec-17 18:32N 29°56' W 090°00'0 0.0
2014-Dec-17 17:33N 29°56' W 090°00'0 0.0
2014-Dec-17 16:32N 29°56' W 090°00'0 0.0
2014-Dec-17 15:33N 29°56' W 090°00'0 0.0
2014-Dec-17 14:33N 29°56' W 090°00'0 0.0
2014-Dec-17 13:31N 29°56' W 090°00'0 0.0
2014-Dec-16 21:14N 29°56' W 090°00'0 0.0
2014-Dec-16 20:25N 29°56' W 090°00'0 0.0
2014-Dec-16 19:33N 29°56' W 090°00'0 0.0
2014-Dec-16 18:33N 29°56' W 090°00'7 5.3
2014-Dec-16 17:15N 29°55' W 090°08'25 0.7
2014-Dec-15 06:32N 30°03' W 090°36'0 0.0
2014-Dec-15 05:32N 30°03' W 090°36'0 0.0
2014-Dec-15 04:27N 30°03' W 090°36'0 0.0
2014-Dec-15 03:31N 30°03' W 090°36'38 1.0
2014-Dec-13 13:07N 29°42' W 089°59'0 0.0
2014-Dec-13 12:29N 29°42' W 089°59'28 1.2
2014-Dec-12 12:06N 29°59' W 090°24'0 0.0
2014-Dec-12 11:10N 29°59' W 090°24'0 0.0
2014-Dec-12 05:14N 29°59' W 090°24'0 0.0
2014-Dec-12 04:31N 29°59' W 090°24'0 0.0
2014-Dec-11 12:09N 29°59' W 090°24'0 0.0
2014-Dec-11 10:21N 29°59' W 090°24'0 0.0
2014-Dec-11 09:32N 29°59' W 090°24'0 0.0
2014-Dec-11 08:32N 29°59' W 090°24'0 0.0
2014-Dec-11 07:31N 29°59' W 090°24'2 1.0
2014-Dec-11 05:33N 29°57' W 090°23'12 0.3
2014-Dec-09 12:06N 30°03' W 090°36'0 0.0
2014-Dec-09 11:13N 30°03' W 090°36'0 0.0
2014-Dec-09 10:06N 30°03' W 090°36'0 0.0
2014-Dec-09 09:31N 30°03' W 090°36'0 0.0
2014-Dec-09 08:23N 30°03' W 090°36'0 0.0
2014-Dec-09 07:32N 30°03' W 090°36'1 0.1
2014-Dec-09 02:24N 30°02' W 090°36'0 0.0
2014-Dec-09 01:14N 30°02' W 090°36'  
Track history (hours):
 
Tides and Currents Weather Stations Pressure Air Temp Water Temp Dewpoint Dewpoint Depression Visibility Wind Speed Wind Dir Waves Ship Positions

Texas City

Owner: Marathon Petroleum Company LP, Findlay, OH. More information available from US FCC via Universal Licensing System and Coast Guard Vessel Documentation Center.

Last reported at 2014-Dec-18 12:11 UTC. Time now 2014-Dec-19 02:19 UTC.
Position N 29°56' W 090°00'.

Length 28 m; draft 3 m.

Type: Tug. MMSI: 367135470.

Date/timePositionNaut miles runAvg speedWind from/ knotsBaromVisibWave heightAir tempDewpointWater temp
2014-Dec-18 12:11N 29°56' W 090°00'0 0.0
2014-Dec-18 06:05N 29°56' W 090°00'0 0.0
2014-Dec-18 05:33N 29°56' W 090°00'0 0.0
2014-Dec-18 02:33N 29°56' W 090°00'0 0.0
2014-Dec-18 00:28N 29°56' W 090°00'0 0.0
2014-Dec-17 23:24N 29°56' W 090°00'0 0.0
2014-Dec-17 22:31N 29°56' W 090°00'0 0.0
2014-Dec-17 21:33N 29°56' W 090°00'0 0.0
2014-Dec-17 20:33N 29°56' W 090°00'0 0.0
2014-Dec-17 19:27N 29°56' W 090°00'0 0.0
2014-Dec-17 18:32N 29°56' W 090°00'0 0.0
2014-Dec-17 17:33N 29°56' W 090°00'0 0.0
2014-Dec-17 16:32N 29°56' W 090°00'0 0.0
2014-Dec-17 15:33N 29°56' W 090°00'0 0.0
2014-Dec-17 14:33N 29°56' W 090°00'0 0.0
2014-Dec-17 13:31N 29°56' W 090°00'0 0.0
2014-Dec-16 21:14N 29°56' W 090°00'0 0.0
2014-Dec-16 20:25N 29°56' W 090°00'0 0.0
2014-Dec-16 19:33N 29°56' W 090°00'0 0.0
2014-Dec-16 18:33N 29°56' W 090°00'7 5.3
2014-Dec-16 17:15N 29°55' W 090°08'25 0.7
2014-Dec-15 06:32N 30°03' W 090°36'0 0.0
2014-Dec-15 05:32N 30°03' W 090°36'0 0.0
2014-Dec-15 04:27N 30°03' W 090°36'0 0.0
2014-Dec-15 03:31N 30°03' W 090°36'38 1.0
2014-Dec-13 13:07N 29°42' W 089°59'0 0.0
2014-Dec-13 12:29N 29°42' W 089°59'28 1.2
2014-Dec-12 12:06N 29°59' W 090°24'0 0.0
2014-Dec-12 11:10N 29°59' W 090°24'0 0.0
2014-Dec-12 05:14N 29°59' W 090°24'0 0.0
2014-Dec-12 04:31N 29°59' W 090°24'0 0.0
2014-Dec-11 12:09N 29°59' W 090°24'0 0.0
2014-Dec-11 10:21N 29°59' W 090°24'0 0.0
2014-Dec-11 09:32N 29°59' W 090°24'0 0.0
2014-Dec-11 08:32N 29°59' W 090°24'0 0.0
2014-Dec-11 07:31N 29°59' W 090°24'2 1.0
2014-Dec-11 05:33N 29°57' W 090°23'12 0.3
2014-Dec-09 12:06N 30°03' W 090°36'0 0.0
2014-Dec-09 11:13N 30°03' W 090°36'0 0.0
2014-Dec-09 10:06N 30°03' W 090°36'0 0.0
2014-Dec-09 09:31N 30°03' W 090°36'0 0.0
2014-Dec-09 08:23N 30°03' W 090°36'0 0.0
2014-Dec-09 07:32N 30°03' W 090°36'1 0.1
2014-Dec-09 02:24N 30°02' W 090°36'0 0.0
2014-Dec-09 01:14N 30°02' W 090°36'  

Dump ship's entire track history